Historique des mesures à Cassis (13260), France
Quotidien Résumé Juin 9, 2017 Unités:  Métrique    US   Métrique/US
« Précédent (Jour)
Suivant (Jour) »
Quotidien Hebdomadaire Mensuel Annuel Période au choix
  Maximum: Minimum: Moyenne:
Température: TemperatureC °C 16.8 °C 20.7 °C
Point de rosée: DewpointC °C 12.1 °C 13.8 °C
Humidité: Humidity % 52 % 62 %
Vitesse du vent: 0 km/h 0 km/h 3.5 km/h
Rafales: 0 km/h - -
Vent:- - SSE
Pression: PressurehPa hPa 1012.1 hPa -
Précipitations: 0.0 mm    
Historical Graphs
 
 
Mesures pour : Juin 9, 2017
Heure Temperature Point de rosée Pression Vent Vitesse du vent Rafales Humidité Pluie (par heure) Conditions
TemperatureC °C DewpointC °C PressurehPa hPa Calm     Humidity % HourlyPrecipMM mm SoftwareType W/m2
00:10 18.5 °C 12.7 °C 1013.4 hPa Calm     69 % 0.0 mm open2300-1.11 W/m2
01:10 17.9 °C 13.0 °C 1013.4 hPa Calm     73 % 0.0 mm open2300-1.11 W/m2
02:10 17.5 °C 12.6 °C 1013.4 hPa Calm     73 % 0.0 mm open2300-1.11 W/m2
03:10 17.2 °C 12.5 °C 1012.8 hPa Calm     74 % 0.0 mm open2300-1.11 W/m2
04:10 17.1 °C 12.6 °C 1012.1 hPa Calm   3.4 km/h 75 % 0.0 mm open2300-1.11 W/m2
05:10 16.8 °C 12.1 °C 1012.8 hPa Calm     74 % 0.0 mm open2300-1.11 W/m2
06:10 16.8 °C 12.3 °C 1013.4 hPa Calm   2.3 km/h 75 % 0.0 mm open2300-1.11 W/m2
07:10 17.2 °C 12.7 °C 1013.4 hPa North 4.2 km/h 4.2 km/h 75 % 0.0 mm open2300-1.11 W/m2
08:10 19.3 °C 13.7 °C 1012.8 hPa NNW 3.4 km/h 4.7 km/h 70 % 0.0 mm open2300-1.11 W/m2
09:10 20.8 °C 13.7 °C 1012.8 hPa South 3.4 km/h 4.7 km/h 64 % 0.0 mm open2300-1.11 W/m2
10:10 21.9 °C 14.1 °C 1013.1 hPa SSE 8.9 km/h 8.9 km/h 61 % 0.0 mm open2300-1.11 W/m2
11:10 24.1 °C 15.6 °C 1013.1 hPa SE 4.2 km/h 9.3 km/h 59 % 0.0 mm open2300-1.11 W/m2
12:10 25.5 °C 16.3 °C 1013.8 hPa SSE 7.6 km/h 7.6 km/h 57 % 0.0 mm open2300-1.11 W/m2
13:10 26.6 °C 16.8 °C 1014.1 hPa SSE 13.2 km/h 13.2 km/h 55 % 0.0 mm open2300-1.11 W/m2
14:10 26.9 °C 16.5 °C 1013.8 hPa ESE 2.9 km/h 8.9 km/h 53 % 0.0 mm open2300-1.11 W/m2
15:10 26.9 °C 16.2 °C 1013.1 hPa SE 5.1 km/h 11.6 km/h 52 % 0.0 mm open2300-1.11 W/m2
16:10 26.5 °C 15.8 °C 1012.8 hPa Calm   5.1 km/h 52 % 0.0 mm open2300-1.11 W/m2
17:10 26.0 °C 15.9 °C 1012.4 hPa SSE 6.4 km/h 6.4 km/h 54 % 0.0 mm open2300-1.11 W/m2
18:10 24.9 °C 15.8 °C 1012.8 hPa South 10.9 km/h 10.9 km/h 57 % 0.0 mm open2300-1.11 W/m2
19:10 23.9 °C 15.9 °C 1012.1 hPa SSE 5.1 km/h 9.8 km/h 61 % 0.0 mm open2300-1.11 W/m2
20:10 22.6 °C 15.9 °C 1012.8 hPa Calm   5.6 km/h 66 % 0.0 mm open2300-1.11 W/m2
21:10 21.7 °C 15.8 °C 1012.8 hPa Calm     69 % 0.0 mm open2300-1.11 W/m2
22:10 20.9 °C 14.5 °C 1013.1 hPa North 5.1 km/h 14.5 km/h 67 % 0.0 mm open2300-1.11 W/m2
23:10 20.4 °C 13.1 °C 1013.1 hPa NNW 8.9 km/h 14 km/h 63 % 0.0 mm open2300-1.11 W/m2
Observations météo à CASSIS
WU-History script by Weather Underground - 1 mb